Bochem Mumbai — VRHJ8 — position and weather

sailwx.info

Track history (hours):
 
Tides and Currents Weather Stations Pressure Air Temp Water Temp Dewpoint Dewpoint Depression Visibility Wind Speed Wind Dir Waves Ship Positions

Bochem Mumbai

Last reported at 2016-Feb-03 02:33 UTC. Time now 2016-Feb-12 12:09 UTC.
Position N 01°13' E 103°41'.
Warning: this ship's position is 9 days out of date.

Length 171 m; draft 9.9 m.

Type: Ship (hazmat cat C). MMSI: 477932400.

Date/timePositionNaut miles runAvg speedWind from/ knotsBaromVisibWave heightAir tempDewpointWater temp
2016-Feb-03 02:33N 01°13' E 103°41'3 0.1
2016-Feb-02 07:25N 01°15' E 103°43'5 1.2
2016-Feb-02 03:07N 01°10' E 103°43'0 0.0
2016-Feb-02 02:25N 01°10' E 103°43'0 0.0
2016-Feb-02 01:31N 01°10' E 103°43'0 0.1
2016-Feb-01 23:28N 01°10' E 103°43'0 0.0
2016-Feb-01 21:31N 01°10' E 103°43'0 0.0
2016-Feb-01 19:28N 01°10' E 103°43'0 0.1
2016-Feb-01 18:19N 01°10' E 103°43'0 0.0
2016-Feb-01 17:07N 01°10' E 103°43'0 0.0
2016-Feb-01 15:33N 01°10' E 103°43'2 2.2
2016-Feb-01 14:31N 01°11' E 103°41'5 0.6
2016-Feb-01 06:32N 01°15' E 103°43'0 0.0
2016-Feb-01 05:32N 01°15' E 103°43'0 0.0
2016-Feb-01 04:32N 01°15' E 103°43'0 0.0
2016-Feb-01 03:29N 01°15' E 103°43'0 0.0
2016-Feb-01 02:26N 01°15' E 103°43'0 0.0
2016-Feb-01 01:23N 01°15' E 103°43'0 0.0
2016-Feb-01 00:32N 01°15' E 103°43'0 0.0
2016-Jan-31 23:32N 01°15' E 103°43'0 0.0
2016-Jan-31 22:29N 01°15' E 103°43'0 0.0
2016-Jan-31 21:29N 01°15' E 103°43'0 0.0
2016-Jan-31 20:32N 01°15' E 103°43'0 0.0
2016-Jan-31 19:27N 01°15' E 103°43'0 0.0
2016-Jan-31 18:32N 01°15' E 103°43'3 3.3
2016-Jan-31 17:33N 01°13' E 103°40'1 0.6
2016-Jan-31 15:10N 01°14' E 103°39'0 0.1
2016-Jan-31 14:33N 01°14' E 103°39'0 0.1
2016-Jan-31 13:32N 01°14' E 103°39'0 0.0
2016-Jan-31 12:20N 01°14' E 103°39'0 0.0
2016-Jan-31 10:26N 01°14' E 103°39'0 0.0
2016-Jan-31 07:17N 01°14' E 103°39'0 0.0
2016-Jan-31 05:29N 01°14' E 103°39'0 0.1
2016-Jan-31 03:32N 01°14' E 103°39'0 0.0
2016-Jan-31 02:32N 01°14' E 103°39'0 0.1
2016-Jan-31 01:29N 01°14' E 103°39'0 0.0
2016-Jan-31 00:26N 01°14' E 103°39'0 0.0
2016-Jan-30 23:32N 01°14' E 103°39'0 0.0
2016-Jan-30 22:26N 01°14' E 103°39'0 0.1
2016-Jan-30 20:05N 01°14' E 103°39'0 0.0
2016-Jan-30 19:08N 01°14' E 103°39'0 0.0
2016-Jan-30 16:11N 01°14' E 103°39'0 0.1
2016-Jan-30 15:32N 01°14' E 103°39'0 0.0
2016-Jan-30 14:32N 01°14' E 103°39'0 0.0
2016-Jan-30 13:33N 01°14' E 103°39'0 0.0
2016-Jan-30 09:32N 01°14' E 103°39'0 0.0
2016-Jan-30 08:32N 01°14' E 103°39'0 0.0
2016-Jan-30 07:33N 01°14' E 103°39'0 0.0
2016-Jan-30 06:30N 01°14' E 103°39'0 0.0
2016-Jan-30 05:33N 01°14' E 103°39'0 0.0
2016-Jan-30 04:33N 01°14' E 103°39'0 0.0
2016-Jan-30 03:32N 01°14' E 103°39'0 0.1
2016-Jan-30 02:32N 01°14' E 103°39'0 0.0
2016-Jan-30 01:30N 01°14' E 103°39'0 0.1
2016-Jan-30 00:33N 01°14' E 103°39'6 5.8
2016-Jan-29 23:33N 01°10' E 103°42'6 6.4
2016-Jan-29 22:33N 01°11' E 103°49'1010.5
2016-Jan-29 21:33N 01°15' E 103°58'1412.9
2016-Jan-29 20:30N 01°17' E 104°12'  
Track history (hours):
 
Tides and Currents Weather Stations Pressure Air Temp Water Temp Dewpoint Dewpoint Depression Visibility Wind Speed Wind Dir Waves Ship Positions

Bochem Mumbai

Last reported at 2016-Feb-03 02:33 UTC. Time now 2016-Feb-12 12:09 UTC.
Position N 01°13' E 103°41'.
Warning: this ship's position is 9 days out of date.

Length 171 m; draft 9.9 m.

Type: Ship (hazmat cat C). MMSI: 477932400.

Date/timePositionNaut miles runAvg speedWind from/ knotsBaromVisibWave heightAir tempDewpointWater temp
2016-Feb-03 02:33N 01°13' E 103°41'3 0.1
2016-Feb-02 07:25N 01°15' E 103°43'5 1.2
2016-Feb-02 03:07N 01°10' E 103°43'0 0.0
2016-Feb-02 02:25N 01°10' E 103°43'0 0.0
2016-Feb-02 01:31N 01°10' E 103°43'0 0.1
2016-Feb-01 23:28N 01°10' E 103°43'0 0.0
2016-Feb-01 21:31N 01°10' E 103°43'0 0.0
2016-Feb-01 19:28N 01°10' E 103°43'0 0.1
2016-Feb-01 18:19N 01°10' E 103°43'0 0.0
2016-Feb-01 17:07N 01°10' E 103°43'0 0.0
2016-Feb-01 15:33N 01°10' E 103°43'2 2.2
2016-Feb-01 14:31N 01°11' E 103°41'5 0.6
2016-Feb-01 06:32N 01°15' E 103°43'0 0.0
2016-Feb-01 05:32N 01°15' E 103°43'0 0.0
2016-Feb-01 04:32N 01°15' E 103°43'0 0.0
2016-Feb-01 03:29N 01°15' E 103°43'0 0.0
2016-Feb-01 02:26N 01°15' E 103°43'0 0.0
2016-Feb-01 01:23N 01°15' E 103°43'0 0.0
2016-Feb-01 00:32N 01°15' E 103°43'0 0.0
2016-Jan-31 23:32N 01°15' E 103°43'0 0.0
2016-Jan-31 22:29N 01°15' E 103°43'0 0.0
2016-Jan-31 21:29N 01°15' E 103°43'0 0.0
2016-Jan-31 20:32N 01°15' E 103°43'0 0.0
2016-Jan-31 19:27N 01°15' E 103°43'0 0.0
2016-Jan-31 18:32N 01°15' E 103°43'3 3.3
2016-Jan-31 17:33N 01°13' E 103°40'1 0.6
2016-Jan-31 15:10N 01°14' E 103°39'0 0.1
2016-Jan-31 14:33N 01°14' E 103°39'0 0.1
2016-Jan-31 13:32N 01°14' E 103°39'0 0.0
2016-Jan-31 12:20N 01°14' E 103°39'0 0.0
2016-Jan-31 10:26N 01°14' E 103°39'0 0.0
2016-Jan-31 07:17N 01°14' E 103°39'0 0.0
2016-Jan-31 05:29N 01°14' E 103°39'0 0.1
2016-Jan-31 03:32N 01°14' E 103°39'0 0.0
2016-Jan-31 02:32N 01°14' E 103°39'0 0.1
2016-Jan-31 01:29N 01°14' E 103°39'0 0.0
2016-Jan-31 00:26N 01°14' E 103°39'0 0.0
2016-Jan-30 23:32N 01°14' E 103°39'0 0.0
2016-Jan-30 22:26N 01°14' E 103°39'0 0.1
2016-Jan-30 20:05N 01°14' E 103°39'0 0.0
2016-Jan-30 19:08N 01°14' E 103°39'0 0.0
2016-Jan-30 16:11N 01°14' E 103°39'0 0.1
2016-Jan-30 15:32N 01°14' E 103°39'0 0.0
2016-Jan-30 14:32N 01°14' E 103°39'0 0.0
2016-Jan-30 13:33N 01°14' E 103°39'0 0.0
2016-Jan-30 09:32N 01°14' E 103°39'0 0.0
2016-Jan-30 08:32N 01°14' E 103°39'0 0.0
2016-Jan-30 07:33N 01°14' E 103°39'0 0.0
2016-Jan-30 06:30N 01°14' E 103°39'0 0.0
2016-Jan-30 05:33N 01°14' E 103°39'0 0.0
2016-Jan-30 04:33N 01°14' E 103°39'0 0.0
2016-Jan-30 03:32N 01°14' E 103°39'0 0.1
2016-Jan-30 02:32N 01°14' E 103°39'0 0.0
2016-Jan-30 01:30N 01°14' E 103°39'0 0.1
2016-Jan-30 00:33N 01°14' E 103°39'6 5.8
2016-Jan-29 23:33N 01°10' E 103°42'6 6.4
2016-Jan-29 22:33N 01°11' E 103°49'1010.5
2016-Jan-29 21:33N 01°15' E 103°58'1412.9
2016-Jan-29 20:30N 01°17' E 104°12'  

Dump ship's entire track history